sensor_id;sensor_type;location;lat;lon;timestamp;P1;durP1;ratioP1;P2;durP2;ratioP2
11386;SDS011;5748;53.102;8.456;2022-08-19T00:01:50;2.00;;;1.90;;
11386;SDS011;5748;53.102;8.456;2022-08-19T00:04:20;1.67;;;1.57;;
11386;SDS011;5748;53.102;8.456;2022-08-19T00:06:51;2.00;;;1.80;;
11386;SDS011;5748;53.102;8.456;2022-08-19T00:09:19;2.00;;;1.90;;
11386;SDS011;5748;53.102;8.456;2022-08-19T00:11:47;2.17;;;1.97;;
11386;SDS011;5748;53.102;8.456;2022-08-19T00:14:15;2.00;;;1.80;;
11386;SDS011;5748;53.102;8.456;2022-08-19T00:16:46;1.87;;;1.77;;
11386;SDS011;5748;53.102;8.456;2022-08-19T00:19:16;2.00;;;1.80;;
11386;SDS011;5748;53.102;8.456;2022-08-19T00:21:43;2.47;;;2.00;;
11386;SDS011;5748;53.102;8.456;2022-08-19T00:24:15;2.20;;;2.00;;
11386;SDS011;5748;53.102;8.456;2022-08-19T00:26:43;2.37;;;2.17;;
11386;SDS011;5748;53.102;8.456;2022-08-19T00:29:18;2.10;;;2.00;;
11386;SDS011;5748;53.102;8.456;2022-08-19T00:31:47;2.10;;;2.00;;
11386;SDS011;5748;53.102;8.456;2022-08-19T00:34:18;2.50;;;2.30;;
11386;SDS011;5748;53.102;8.456;2022-08-19T00:36:45;2.10;;;1.90;;
11386;SDS011;5748;53.102;8.456;2022-08-19T00:39:13;2.53;;;2.33;;
11386;SDS011;5748;53.102;8.456;2022-08-19T00:41:45;1.83;;;1.73;;
11386;SDS011;5748;53.102;8.456;2022-08-19T00:44:17;2.20;;;2.00;;
11386;SDS011;5748;53.102;8.456;2022-08-19T00:46:49;2.33;;;2.13;;
11386;SDS011;5748;53.102;8.456;2022-08-19T00:49:22;2.50;;;2.30;;
11386;SDS011;5748;53.102;8.456;2022-08-19T00:51:55;2.53;;;2.33;;
11386;SDS011;5748;53.102;8.456;2022-08-19T00:54:35;2.33;;;2.13;;
11386;SDS011;5748;53.102;8.456;2022-08-19T00:57:05;2.40;;;2.20;;
11386;SDS011;5748;53.102;8.456;2022-08-19T00:59:43;2.40;;;2.20;;
11386;SDS011;5748;53.102;8.456;2022-08-19T01:02:16;2.57;;;1.90;;
11386;SDS011;5748;53.102;8.456;2022-08-19T01:04:45;2.63;;;2.20;;
11386;SDS011;5748;53.102;8.456;2022-08-19T01:07:14;2.43;;;2.23;;
11386;SDS011;5748;53.102;8.456;2022-08-19T01:09:41;2.37;;;2.17;;
11386;SDS011;5748;53.102;8.456;2022-08-19T01:12:08;2.57;;;2.37;;
11386;SDS011;5748;53.102;8.456;2022-08-19T01:14:35;2.53;;;2.33;;
11386;SDS011;5748;53.102;8.456;2022-08-19T01:17:05;2.57;;;2.37;;
11386;SDS011;5748;53.102;8.456;2022-08-19T01:19:36;2.33;;;2.13;;
11386;SDS011;5748;53.102;8.456;2022-08-19T01:22:25;2.10;;;2.00;;
11386;SDS011;5748;53.102;8.456;2022-08-19T01:25:03;2.50;;;2.10;;
11386;SDS011;5748;53.102;8.456;2022-08-19T01:30:32;2.07;;;1.93;;
11386;SDS011;5748;53.102;8.456;2022-08-19T01:33:01;2.43;;;2.23;;
11386;SDS011;5748;53.102;8.456;2022-08-19T01:35:49;2.30;;;2.10;;
11386;SDS011;5748;53.102;8.456;2022-08-19T01:38:21;2.50;;;2.30;;
11386;SDS011;5748;53.102;8.456;2022-08-19T01:40:51;2.40;;;2.20;;
11386;SDS011;5748;53.102;8.456;2022-08-19T01:43:22;2.50;;;2.30;;
11386;SDS011;5748;53.102;8.456;2022-08-19T01:45:56;2.70;;;2.50;;
11386;SDS011;5748;53.102;8.456;2022-08-19T01:48:25;2.40;;;2.20;;
11386;SDS011;5748;53.102;8.456;2022-08-19T01:50:56;2.40;;;2.20;;
11386;SDS011;5748;53.102;8.456;2022-08-19T01:53:24;2.40;;;2.20;;
11386;SDS011;5748;53.102;8.456;2022-08-19T01:59:14;2.30;;;2.17;;
11386;SDS011;5748;53.102;8.456;2022-08-19T02:01:46;2.53;;;2.30;;
11386;SDS011;5748;53.102;8.456;2022-08-19T02:04:13;2.53;;;2.33;;
11386;SDS011;5748;53.102;8.456;2022-08-19T02:06:52;2.40;;;2.20;;
11386;SDS011;5748;53.102;8.456;2022-08-19T02:12:24;2.70;;;2.50;;
11386;SDS011;5748;53.102;8.456;2022-08-19T02:14:51;2.70;;;2.50;;
11386;SDS011;5748;53.102;8.456;2022-08-19T02:17:21;2.50;;;2.30;;
11386;SDS011;5748;53.102;8.456;2022-08-19T02:20:01;2.50;;;2.30;;
11386;SDS011;5748;53.102;8.456;2022-08-19T02:22:36;2.50;;;2.30;;
11386;SDS011;5748;53.102;8.456;2022-08-19T02:25:08;2.40;;;2.20;;
11386;SDS011;5748;53.102;8.456;2022-08-19T02:27:35;2.23;;;2.07;;
11386;SDS011;5748;53.102;8.456;2022-08-19T02:30:04;2.40;;;2.20;;
11386;SDS011;5748;53.102;8.456;2022-08-19T02:32:34;2.70;;;2.50;;
11386;SDS011;5748;53.102;8.456;2022-08-19T02:35:02;2.73;;;2.47;;
11386;SDS011;5748;53.102;8.456;2022-08-19T02:37:45;2.87;;;2.67;;
11386;SDS011;5748;53.102;8.456;2022-08-19T02:40:48;2.40;;;2.20;;
11386;SDS011;5748;53.102;8.456;2022-08-19T02:43:18;2.70;;;2.50;;
11386;SDS011;5748;53.102;8.456;2022-08-19T02:45:46;2.20;;;2.03;;
11386;SDS011;5748;53.102;8.456;2022-08-19T02:48:15;3.07;;;2.87;;
11386;SDS011;5748;53.102;8.456;2022-08-19T02:50:43;3.73;;;2.57;;
11386;SDS011;5748;53.102;8.456;2022-08-19T02:53:11;2.80;;;2.60;;
11386;SDS011;5748;53.102;8.456;2022-08-19T02:55:42;3.53;;;2.70;;
11386;SDS011;5748;53.102;8.456;2022-08-19T02:58:12;3.93;;;2.70;;
11386;SDS011;5748;53.102;8.456;2022-08-19T03:00:41;6.17;;;2.60;;
11386;SDS011;5748;53.102;8.456;2022-08-19T03:03:13;3.00;;;2.70;;
11386;SDS011;5748;53.102;8.456;2022-08-19T03:05:50;4.07;;;2.90;;
11386;SDS011;5748;53.102;8.456;2022-08-19T03:08:17;3.13;;;2.83;;
11386;SDS011;5748;53.102;8.456;2022-08-19T03:10:45;3.40;;;3.10;;
11386;SDS011;5748;53.102;8.456;2022-08-19T03:13:16;3.17;;;2.87;;
11386;SDS011;5748;53.102;8.456;2022-08-19T03:15:44;2.97;;;2.60;;
11386;SDS011;5748;53.102;8.456;2022-08-19T03:21:02;3.30;;;2.73;;
11386;SDS011;5748;53.102;8.456;2022-08-19T03:23:32;3.03;;;2.73;;
11386;SDS011;5748;53.102;8.456;2022-08-19T03:26:16;4.53;;;3.03;;
11386;SDS011;5748;53.102;8.456;2022-08-19T03:28:44;4.17;;;2.80;;
11386;SDS011;5748;53.102;8.456;2022-08-19T03:31:15;3.27;;;2.93;;
11386;SDS011;5748;53.102;8.456;2022-08-19T03:33:46;3.90;;;3.00;;
11386;SDS011;5748;53.102;8.456;2022-08-19T03:36:17;3.63;;;3.17;;
11386;SDS011;5748;53.102;8.456;2022-08-19T03:38:48;2.80;;;2.60;;
11386;SDS011;5748;53.102;8.456;2022-08-19T03:41:18;2.67;;;2.30;;
11386;SDS011;5748;53.102;8.456;2022-08-19T03:43:49;2.50;;;2.20;;
11386;SDS011;5748;53.102;8.456;2022-08-19T03:46:19;2.67;;;2.30;;
11386;SDS011;5748;53.102;8.456;2022-08-19T03:48:48;2.27;;;2.00;;
11386;SDS011;5748;53.102;8.456;2022-08-19T03:51:19;1.80;;;1.70;;
11386;SDS011;5748;53.102;8.456;2022-08-19T03:53:50;1.93;;;1.80;;
11386;SDS011;5748;53.102;8.456;2022-08-19T03:56:20;1.93;;;1.80;;
11386;SDS011;5748;53.102;8.456;2022-08-19T03:58:49;1.80;;;1.70;;
11386;SDS011;5748;53.102;8.456;2022-08-19T04:01:17;2.00;;;1.87;;
11386;SDS011;5748;53.102;8.456;2022-08-19T04:03:47;1.80;;;1.70;;
11386;SDS011;5748;53.102;8.456;2022-08-19T04:06:16;2.00;;;1.80;;
11386;SDS011;5748;53.102;8.456;2022-08-19T04:08:47;1.80;;;1.70;;
11386;SDS011;5748;53.102;8.456;2022-08-19T04:11:15;1.97;;;1.77;;
11386;SDS011;5748;53.102;8.456;2022-08-19T04:13:46;2.10;;;1.90;;
11386;SDS011;5748;53.102;8.456;2022-08-19T04:16:16;1.73;;;1.63;;
11386;SDS011;5748;53.102;8.456;2022-08-19T04:18:44;1.80;;;1.70;;
11386;SDS011;5748;53.102;8.456;2022-08-19T04:21:15;1.80;;;1.70;;
11386;SDS011;5748;53.102;8.456;2022-08-19T04:23:46;1.97;;;1.70;;
11386;SDS011;5748;53.102;8.456;2022-08-19T04:29:09;1.60;;;1.50;;
11386;SDS011;5748;53.102;8.456;2022-08-19T04:31:39;1.67;;;1.57;;
11386;SDS011;5748;53.102;8.456;2022-08-19T04:34:09;2.83;;;1.90;;
11386;SDS011;5748;53.102;8.456;2022-08-19T04:36:40;1.97;;;1.80;;
11386;SDS011;5748;53.102;8.456;2022-08-19T04:39:10;2.27;;;2.07;;
11386;SDS011;5748;53.102;8.456;2022-08-19T04:41:50;2.20;;;1.70;;
11386;SDS011;5748;53.102;8.456;2022-08-19T04:44:36;1.80;;;1.70;;
11386;SDS011;5748;53.102;8.456;2022-08-19T04:47:03;1.73;;;1.63;;
11386;SDS011;5748;53.102;8.456;2022-08-19T04:49:31;1.70;;;1.60;;
11386;SDS011;5748;53.102;8.456;2022-08-19T04:51:59;1.80;;;1.70;;
11386;SDS011;5748;53.102;8.456;2022-08-19T04:54:26;2.03;;;1.80;;
11386;SDS011;5748;53.102;8.456;2022-08-19T04:56:54;2.10;;;1.90;;
11386;SDS011;5748;53.102;8.456;2022-08-19T05:02:10;1.70;;;1.60;;
11386;SDS011;5748;53.102;8.456;2022-08-19T05:04:38;1.90;;;1.80;;
11386;SDS011;5748;53.102;8.456;2022-08-19T05:07:05;2.00;;;1.90;;
11386;SDS011;5748;53.102;8.456;2022-08-19T05:09:33;1.70;;;1.60;;
11386;SDS011;5748;53.102;8.456;2022-08-19T05:12:01;1.70;;;1.60;;
11386;SDS011;5748;53.102;8.456;2022-08-19T05:14:31;2.07;;;1.87;;
11386;SDS011;5748;53.102;8.456;2022-08-19T05:17:04;1.97;;;1.87;;
11386;SDS011;5748;53.102;8.456;2022-08-19T05:19:31;1.50;;;1.40;;
11386;SDS011;5748;53.102;8.456;2022-08-19T05:22:19;1.80;;;1.70;;
11386;SDS011;5748;53.102;8.456;2022-08-19T05:25:00;1.80;;;1.70;;
11386;SDS011;5748;53.102;8.456;2022-08-19T05:27:30;1.60;;;1.50;;
11386;SDS011;5748;53.102;8.456;2022-08-19T05:29:58;1.57;;;1.47;;
11386;SDS011;5748;53.102;8.456;2022-08-19T05:32:28;1.80;;;1.70;;
11386;SDS011;5748;53.102;8.456;2022-08-19T05:34:55;1.53;;;1.43;;
11386;SDS011;5748;53.102;8.456;2022-08-19T05:37:22;1.73;;;1.63;;
11386;SDS011;5748;53.102;8.456;2022-08-19T05:39:51;1.87;;;1.77;;
11386;SDS011;5748;53.102;8.456;2022-08-19T05:42:19;2.10;;;1.60;;
11386;SDS011;5748;53.102;8.456;2022-08-19T05:44:47;1.53;;;1.43;;
11386;SDS011;5748;53.102;8.456;2022-08-19T05:47:20;1.70;;;1.53;;
11386;SDS011;5748;53.102;8.456;2022-08-19T05:49:49;1.50;;;1.40;;
11386;SDS011;5748;53.102;8.456;2022-08-19T05:52:16;1.50;;;1.40;;
11386;SDS011;5748;53.102;8.456;2022-08-19T05:54:46;1.60;;;1.50;;
11386;SDS011;5748;53.102;8.456;2022-08-19T05:57:16;1.97;;;1.60;;
11386;SDS011;5748;53.102;8.456;2022-08-19T05:59:43;1.50;;;1.40;;
11386;SDS011;5748;53.102;8.456;2022-08-19T06:02:13;1.73;;;1.63;;
11386;SDS011;5748;53.102;8.456;2022-08-19T06:04:40;1.63;;;1.50;;
11386;SDS011;5748;53.102;8.456;2022-08-19T06:07:09;1.50;;;1.40;;
11386;SDS011;5748;53.102;8.456;2022-08-19T06:09:37;1.80;;;1.70;;
11386;SDS011;5748;53.102;8.456;2022-08-19T06:12:04;2.00;;;1.80;;
11386;SDS011;5748;53.102;8.456;2022-08-19T06:14:32;2.30;;;2.10;;
11386;SDS011;5748;53.102;8.456;2022-08-19T06:17:02;2.40;;;2.20;;
11386;SDS011;5748;53.102;8.456;2022-08-19T06:19:30;1.83;;;1.73;;
11386;SDS011;5748;53.102;8.456;2022-08-19T06:22:03;2.17;;;1.97;;
11386;SDS011;5748;53.102;8.456;2022-08-19T06:24:32;1.80;;;1.70;;
11386;SDS011;5748;53.102;8.456;2022-08-19T06:27:00;2.20;;;2.00;;
11386;SDS011;5748;53.102;8.456;2022-08-19T06:29:31;1.50;;;1.40;;
11386;SDS011;5748;53.102;8.456;2022-08-19T06:32:00;2.30;;;2.10;;
11386;SDS011;5748;53.102;8.456;2022-08-19T06:34:30;1.93;;;1.83;;
11386;SDS011;5748;53.102;8.456;2022-08-19T06:37:01;2.00;;;1.87;;
11386;SDS011;5748;53.102;8.456;2022-08-19T06:39:31;1.90;;;1.70;;
11386;SDS011;5748;53.102;8.456;2022-08-19T06:42:04;1.70;;;1.60;;
11386;SDS011;5748;53.102;8.456;2022-08-19T06:44:35;1.80;;;1.70;;
11386;SDS011;5748;53.102;8.456;2022-08-19T06:47:05;2.17;;;1.97;;
11386;SDS011;5748;53.102;8.456;2022-08-19T06:49:35;2.20;;;2.00;;
11386;SDS011;5748;53.102;8.456;2022-08-19T06:52:02;1.93;;;1.70;;
11386;SDS011;5748;53.102;8.456;2022-08-19T06:54:30;1.90;;;1.70;;
11386;SDS011;5748;53.102;8.456;2022-08-19T06:57:00;2.20;;;2.00;;
11386;SDS011;5748;53.102;8.456;2022-08-19T06:59:28;1.77;;;1.67;;
11386;SDS011;5748;53.102;8.456;2022-08-19T07:02:04;2.30;;;2.10;;
11386;SDS011;5748;53.102;8.456;2022-08-19T07:04:33;2.10;;;1.90;;
11386;SDS011;5748;53.102;8.456;2022-08-19T07:07:04;1.90;;;1.80;;
11386;SDS011;5748;53.102;8.456;2022-08-19T07:09:35;2.00;;;1.80;;
11386;SDS011;5748;53.102;8.456;2022-08-19T07:12:05;2.27;;;2.07;;
11386;SDS011;5748;53.102;8.456;2022-08-19T07:14:36;1.63;;;1.53;;
11386;SDS011;5748;53.102;8.456;2022-08-19T07:17:06;2.10;;;1.90;;
11386;SDS011;5748;53.102;8.456;2022-08-19T07:19:37;2.00;;;1.90;;
11386;SDS011;5748;53.102;8.456;2022-08-19T07:22:06;1.90;;;1.73;;
11386;SDS011;5748;53.102;8.456;2022-08-19T07:24:36;2.00;;;1.80;;
11386;SDS011;5748;53.102;8.456;2022-08-19T07:27:06;2.13;;;1.88;;
11386;SDS011;5748;53.102;8.456;2022-08-19T07:29:34;1.70;;;1.52;;
11386;SDS011;5748;53.102;8.456;2022-08-19T07:32:04;1.80;;;1.65;;
11386;SDS011;5748;53.102;8.456;2022-08-19T07:34:32;1.50;;;1.40;;
11386;SDS011;5748;53.102;8.456;2022-08-19T07:37:02;1.75;;;1.40;;
11386;SDS011;5748;53.102;8.456;2022-08-19T07:39:31;1.60;;;1.50;;
11386;SDS011;5748;53.102;8.456;2022-08-19T07:42:02;1.50;;;1.40;;
11386;SDS011;5748;53.102;8.456;2022-08-19T07:44:34;1.67;;;1.58;;
11386;SDS011;5748;53.102;8.456;2022-08-19T07:47:03;1.40;;;1.30;;
11386;SDS011;5748;53.102;8.456;2022-08-19T07:49:32;1.55;;;1.45;;
11386;SDS011;5748;53.102;8.456;2022-08-19T07:52:04;1.20;;;1.15;;
11386;SDS011;5748;53.102;8.456;2022-08-19T07:54:34;1.23;;;1.13;;
11386;SDS011;5748;53.102;8.456;2022-08-19T07:57:03;1.42;;;1.33;;
11386;SDS011;5748;53.102;8.456;2022-08-19T07:59:33;1.40;;;1.30;;
11386;SDS011;5748;53.102;8.456;2022-08-19T08:02:01;1.40;;;1.30;;
11386;SDS011;5748;53.102;8.456;2022-08-19T08:04:29;1.23;;;1.13;;
11386;SDS011;5748;53.102;8.456;2022-08-19T08:07:14;1.38;;;1.27;;
11386;SDS011;5748;53.102;8.456;2022-08-19T08:09:59;1.20;;;1.10;;
11386;SDS011;5748;53.102;8.456;2022-08-19T08:12:35;1.80;;;1.40;;
11386;SDS011;5748;53.102;8.456;2022-08-19T08:15:09;1.23;;;1.13;;
11386;SDS011;5748;53.102;8.456;2022-08-19T08:17:41;1.23;;;1.13;;
11386;SDS011;5748;53.102;8.456;2022-08-19T08:20:09;1.20;;;1.10;;
11386;SDS011;5748;53.102;8.456;2022-08-19T08:22:42;1.10;;;1.10;;
11386;SDS011;5748;53.102;8.456;2022-08-19T08:25:29;1.00;;;1.00;;
11386;SDS011;5748;53.102;8.456;2022-08-19T08:27:56;1.23;;;1.13;;
11386;SDS011;5748;53.102;8.456;2022-08-19T08:30:28;1.20;;;1.20;;
11386;SDS011;5748;53.102;8.456;2022-08-19T08:32:57;1.10;;;1.10;;
11386;SDS011;5748;53.102;8.456;2022-08-19T08:35:24;1.67;;;1.02;;
11386;SDS011;5748;53.102;8.456;2022-08-19T08:37:52;0.93;;;0.93;;
11386;SDS011;5748;53.102;8.456;2022-08-19T08:40:33;1.10;;;1.00;;
11386;SDS011;5748;53.102;8.456;2022-08-19T08:43:12;1.10;;;1.00;;
11386;SDS011;5748;53.102;8.456;2022-08-19T08:48:29;1.25;;;1.15;;
11386;SDS011;5748;53.102;8.456;2022-08-19T08:51:03;1.20;;;1.10;;
11386;SDS011;5748;53.102;8.456;2022-08-19T08:56:06;0.98;;;0.98;;
11386;SDS011;5748;53.102;8.456;2022-08-19T08:58:40;1.02;;;1.00;;
11386;SDS011;5748;53.102;8.456;2022-08-19T09:01:15;1.42;;;1.00;;
11386;SDS011;5748;53.102;8.456;2022-08-19T09:03:43;0.90;;;0.90;;
11386;SDS011;5748;53.102;8.456;2022-08-19T09:06:12;1.00;;;1.00;;
11386;SDS011;5748;53.102;8.456;2022-08-19T09:08:53;1.08;;;1.08;;
11386;SDS011;5748;53.102;8.456;2022-08-19T09:11:31;1.00;;;1.00;;
11386;SDS011;5748;53.102;8.456;2022-08-19T09:14:18;1.00;;;1.00;;
11386;SDS011;5748;53.102;8.456;2022-08-19T09:17:05;1.30;;;1.20;;
11386;SDS011;5748;53.102;8.456;2022-08-19T09:19:33;0.88;;;0.88;;
11386;SDS011;5748;53.102;8.456;2022-08-19T09:22:01;1.00;;;1.00;;
11386;SDS011;5748;53.102;8.456;2022-08-19T09:24:30;0.90;;;0.90;;
11386;SDS011;5748;53.102;8.456;2022-08-19T09:26:57;0.93;;;0.93;;
11386;SDS011;5748;53.102;8.456;2022-08-19T09:29:24;0.70;;;0.70;;
11386;SDS011;5748;53.102;8.456;2022-08-19T09:31:51;0.90;;;0.90;;
11386;SDS011;5748;53.102;8.456;2022-08-19T09:34:19;0.73;;;0.73;;
11386;SDS011;5748;53.102;8.456;2022-08-19T09:36:47;0.77;;;0.77;;
11386;SDS011;5748;53.102;8.456;2022-08-19T09:39:18;0.70;;;0.70;;
11386;SDS011;5748;53.102;8.456;2022-08-19T09:41:45;7.05;;;0.82;;
11386;SDS011;5748;53.102;8.456;2022-08-19T09:44:16;0.70;;;0.70;;
11386;SDS011;5748;53.102;8.456;2022-08-19T09:46:59;0.70;;;0.70;;
11386;SDS011;5748;53.102;8.456;2022-08-19T09:49:28;0.63;;;0.63;;
11386;SDS011;5748;53.102;8.456;2022-08-19T09:51:56;0.80;;;0.80;;
11386;SDS011;5748;53.102;8.456;2022-08-19T09:54:29;0.65;;;0.60;;
11386;SDS011;5748;53.102;8.456;2022-08-19T09:56:58;0.80;;;0.80;;
11386;SDS011;5748;53.102;8.456;2022-08-19T09:59:26;0.70;;;0.70;;
11386;SDS011;5748;53.102;8.456;2022-08-19T10:01:56;0.70;;;0.70;;
11386;SDS011;5748;53.102;8.456;2022-08-19T10:04:24;0.85;;;0.77;;
11386;SDS011;5748;53.102;8.456;2022-08-19T10:07:13;0.90;;;0.90;;
11386;SDS011;5748;53.102;8.456;2022-08-19T10:09:50;0.70;;;0.70;;
11386;SDS011;5748;53.102;8.456;2022-08-19T10:12:26;0.68;;;0.68;;
11386;SDS011;5748;53.102;8.456;2022-08-19T10:14:53;0.73;;;0.73;;
11386;SDS011;5748;53.102;8.456;2022-08-19T10:17:28;0.50;;;0.50;;
11386;SDS011;5748;53.102;8.456;2022-08-19T10:19:55;0.80;;;0.80;;
11386;SDS011;5748;53.102;8.456;2022-08-19T10:22:23;0.70;;;0.70;;
11386;SDS011;5748;53.102;8.456;2022-08-19T10:24:50;0.60;;;0.60;;
11386;SDS011;5748;53.102;8.456;2022-08-19T10:30:22;0.93;;;0.80;;
11386;SDS011;5748;53.102;8.456;2022-08-19T10:32:50;0.60;;;0.60;;
11386;SDS011;5748;53.102;8.456;2022-08-19T10:37:56;0.60;;;0.60;;
11386;SDS011;5748;53.102;8.456;2022-08-19T10:40:24;0.50;;;0.50;;
11386;SDS011;5748;53.102;8.456;2022-08-19T10:42:52;0.47;;;0.47;;
11386;SDS011;5748;53.102;8.456;2022-08-19T10:45:22;0.88;;;0.52;;
11386;SDS011;5748;53.102;8.456;2022-08-19T10:47:51;0.40;;;0.40;;
11386;SDS011;5748;53.102;8.456;2022-08-19T10:50:19;0.65;;;0.65;;
11386;SDS011;5748;53.102;8.456;2022-08-19T10:53:04;0.50;;;0.50;;
11386;SDS011;5748;53.102;8.456;2022-08-19T10:55:34;0.40;;;0.40;;
11386;SDS011;5748;53.102;8.456;2022-08-19T10:58:19;0.40;;;0.40;;
11386;SDS011;5748;53.102;8.456;2022-08-19T11:00:51;0.30;;;0.30;;
11386;SDS011;5748;53.102;8.456;2022-08-19T11:03:20;0.35;;;0.35;;
11386;SDS011;5748;53.102;8.456;2022-08-19T11:05:56;0.30;;;0.30;;
11386;SDS011;5748;53.102;8.456;2022-08-19T11:08:26;0.40;;;0.40;;
11386;SDS011;5748;53.102;8.456;2022-08-19T11:10:57;0.57;;;0.32;;
11386;SDS011;5748;53.102;8.456;2022-08-19T11:13:27;0.30;;;0.30;;
11386;SDS011;5748;53.102;8.456;2022-08-19T11:15:59;0.30;;;0.30;;
11386;SDS011;5748;53.102;8.456;2022-08-19T11:18:27;0.85;;;0.30;;
11386;SDS011;5748;53.102;8.456;2022-08-19T11:21:04;0.30;;;0.30;;
11386;SDS011;5748;53.102;8.456;2022-08-19T11:23:40;0.40;;;0.32;;
11386;SDS011;5748;53.102;8.456;2022-08-19T11:26:14;0.82;;;0.40;;
11386;SDS011;5748;53.102;8.456;2022-08-19T11:28:44;0.35;;;0.35;;
11386;SDS011;5748;53.102;8.456;2022-08-19T11:31:15;0.50;;;0.50;;
11386;SDS011;5748;53.102;8.456;2022-08-19T11:33:51;0.40;;;0.40;;
11386;SDS011;5748;53.102;8.456;2022-08-19T11:36:20;0.43;;;0.43;;
11386;SDS011;5748;53.102;8.456;2022-08-19T11:38:57;0.73;;;0.60;;
11386;SDS011;5748;53.102;8.456;2022-08-19T11:41:25;0.45;;;0.40;;
11386;SDS011;5748;53.102;8.456;2022-08-19T11:43:57;0.40;;;0.40;;
11386;SDS011;5748;53.102;8.456;2022-08-19T11:46:43;0.40;;;0.40;;
11386;SDS011;5748;53.102;8.456;2022-08-19T11:49:14;0.30;;;0.30;;
11386;SDS011;5748;53.102;8.456;2022-08-19T11:51:47;0.40;;;0.40;;
11386;SDS011;5748;53.102;8.456;2022-08-19T11:54:18;0.30;;;0.30;;
11386;SDS011;5748;53.102;8.456;2022-08-19T11:57:02;0.30;;;0.30;;
11386;SDS011;5748;53.102;8.456;2022-08-19T11:59:34;0.45;;;0.45;;
11386;SDS011;5748;53.102;8.456;2022-08-19T12:02:05;0.50;;;0.50;;
11386;SDS011;5748;53.102;8.456;2022-08-19T12:04:37;0.40;;;0.40;;
11386;SDS011;5748;53.102;8.456;2022-08-19T12:07:21;0.40;;;0.40;;
11386;SDS011;5748;53.102;8.456;2022-08-19T12:09:56;0.40;;;0.40;;
11386;SDS011;5748;53.102;8.456;2022-08-19T12:12:35;0.45;;;0.45;;
11386;SDS011;5748;53.102;8.456;2022-08-19T12:15:15;0.55;;;0.55;;
11386;SDS011;5748;53.102;8.456;2022-08-19T12:17:55;0.50;;;0.50;;
11386;SDS011;5748;53.102;8.456;2022-08-19T12:20:26;0.40;;;0.40;;
11386;SDS011;5748;53.102;8.456;2022-08-19T12:22:58;1.05;;;0.40;;
11386;SDS011;5748;53.102;8.456;2022-08-19T12:25:36;0.40;;;0.40;;
11386;SDS011;5748;53.102;8.456;2022-08-19T12:28:06;0.55;;;0.55;;
11386;SDS011;5748;53.102;8.456;2022-08-19T12:30:44;0.47;;;0.47;;
11386;SDS011;5748;53.102;8.456;2022-08-19T12:33:21;0.43;;;0.43;;
11386;SDS011;5748;53.102;8.456;2022-08-19T12:36:12;0.47;;;0.47;;
11386;SDS011;5748;53.102;8.456;2022-08-19T12:38:58;0.50;;;0.50;;
11386;SDS011;5748;53.102;8.456;2022-08-19T12:41:39;0.50;;;0.50;;
11386;SDS011;5748;53.102;8.456;2022-08-19T12:44:16;0.60;;;0.60;;
11386;SDS011;5748;53.102;8.456;2022-08-19T12:47:04;0.50;;;0.50;;
11386;SDS011;5748;53.102;8.456;2022-08-19T12:49:50;0.52;;;0.52;;
11386;SDS011;5748;53.102;8.456;2022-08-19T12:52:18;0.57;;;0.57;;
11386;SDS011;5748;53.102;8.456;2022-08-19T12:54:48;0.50;;;0.50;;
11386;SDS011;5748;53.102;8.456;2022-08-19T12:57:19;1.40;;;0.60;;
11386;SDS011;5748;53.102;8.456;2022-08-19T12:59:53;0.50;;;0.50;;
11386;SDS011;5748;53.102;8.456;2022-08-19T13:02:28;0.55;;;0.55;;
11386;SDS011;5748;53.102;8.456;2022-08-19T13:04:57;0.40;;;0.40;;
11386;SDS011;5748;53.102;8.456;2022-08-19T13:07:24;0.60;;;0.60;;
11386;SDS011;5748;53.102;8.456;2022-08-19T13:09:51;0.70;;;0.70;;
11386;SDS011;5748;53.102;8.456;2022-08-19T13:12:19;0.55;;;0.55;;
11386;SDS011;5748;53.102;8.456;2022-08-19T13:14:51;0.63;;;0.63;;
11386;SDS011;5748;53.102;8.456;2022-08-19T13:17:18;0.57;;;0.57;;
11386;SDS011;5748;53.102;8.456;2022-08-19T13:19:46;0.60;;;0.60;;
11386;SDS011;5748;53.102;8.456;2022-08-19T13:22:22;0.70;;;0.70;;
11386;SDS011;5748;53.102;8.456;2022-08-19T13:24:52;0.57;;;0.57;;
11386;SDS011;5748;53.102;8.456;2022-08-19T13:27:23;0.60;;;0.60;;
11386;SDS011;5748;53.102;8.456;2022-08-19T13:29:50;0.50;;;0.50;;
11386;SDS011;5748;53.102;8.456;2022-08-19T13:32:35;0.88;;;0.60;;
11386;SDS011;5748;53.102;8.456;2022-08-19T13:35:32;0.60;;;0.60;;
11386;SDS011;5748;53.102;8.456;2022-08-19T13:38:01;0.60;;;0.60;;
11386;SDS011;5748;53.102;8.456;2022-08-19T13:40:29;0.57;;;0.57;;
11386;SDS011;5748;53.102;8.456;2022-08-19T13:43:00;0.50;;;0.50;;
11386;SDS011;5748;53.102;8.456;2022-08-19T13:45:31;0.50;;;0.50;;
11386;SDS011;5748;53.102;8.456;2022-08-19T13:48:00;0.60;;;0.60;;
11386;SDS011;5748;53.102;8.456;2022-08-19T13:50:31;0.50;;;0.50;;
11386;SDS011;5748;53.102;8.456;2022-08-19T13:53:00;0.70;;;0.70;;
11386;SDS011;5748;53.102;8.456;2022-08-19T13:55:30;0.50;;;0.50;;
11386;SDS011;5748;53.102;8.456;2022-08-19T14:00:32;0.50;;;0.50;;
11386;SDS011;5748;53.102;8.456;2022-08-19T14:03:03;0.70;;;0.70;;
11386;SDS011;5748;53.102;8.456;2022-08-19T14:05:30;0.57;;;0.57;;
11386;SDS011;5748;53.102;8.456;2022-08-19T14:07:59;0.60;;;0.60;;
11386;SDS011;5748;53.102;8.456;2022-08-19T14:10:26;0.75;;;0.60;;
11386;SDS011;5748;53.102;8.456;2022-08-19T14:12:58;0.68;;;0.68;;
11386;SDS011;5748;53.102;8.456;2022-08-19T14:15:29;0.50;;;0.50;;
11386;SDS011;5748;53.102;8.456;2022-08-19T14:17:57;0.57;;;0.57;;
11386;SDS011;5748;53.102;8.456;2022-08-19T14:20:25;0.55;;;0.55;;
11386;SDS011;5748;53.102;8.456;2022-08-19T14:22:57;0.60;;;0.60;;
11386;SDS011;5748;53.102;8.456;2022-08-19T14:25:25;0.50;;;0.47;;
11386;SDS011;5748;53.102;8.456;2022-08-19T14:27:54;0.52;;;0.52;;
11386;SDS011;5748;53.102;8.456;2022-08-19T14:30:24;0.55;;;0.55;;
11386;SDS011;5748;53.102;8.456;2022-08-19T14:33:03;0.50;;;0.50;;
11386;SDS011;5748;53.102;8.456;2022-08-19T14:35:32;0.70;;;0.60;;
11386;SDS011;5748;53.102;8.456;2022-08-19T14:38:02;0.60;;;0.60;;
11386;SDS011;5748;53.102;8.456;2022-08-19T14:40:30;0.82;;;0.82;;
11386;SDS011;5748;53.102;8.456;2022-08-19T14:42:58;0.70;;;0.70;;
11386;SDS011;5748;53.102;8.456;2022-08-19T14:45:30;0.63;;;0.63;;
11386;SDS011;5748;53.102;8.456;2022-08-19T14:47:59;0.70;;;0.70;;
11386;SDS011;5748;53.102;8.456;2022-08-19T14:50:27;0.75;;;0.75;;
11386;SDS011;5748;53.102;8.456;2022-08-19T14:52:57;0.70;;;0.70;;
11386;SDS011;5748;53.102;8.456;2022-08-19T14:55:27;0.70;;;0.70;;
11386;SDS011;5748;53.102;8.456;2022-08-19T14:57:54;0.60;;;0.60;;
11386;SDS011;5748;53.102;8.456;2022-08-19T15:00:22;0.70;;;0.70;;
11386;SDS011;5748;53.102;8.456;2022-08-19T15:02:49;0.70;;;0.70;;
11386;SDS011;5748;53.102;8.456;2022-08-19T15:05:18;0.80;;;0.80;;
11386;SDS011;5748;53.102;8.456;2022-08-19T15:07:49;0.70;;;0.70;;
11386;SDS011;5748;53.102;8.456;2022-08-19T15:10:16;0.70;;;0.70;;
11386;SDS011;5748;53.102;8.456;2022-08-19T15:12:44;0.63;;;0.63;;
11386;SDS011;5748;53.102;8.456;2022-08-19T15:15:13;0.60;;;0.60;;
11386;SDS011;5748;53.102;8.456;2022-08-19T15:17:42;0.73;;;0.60;;
11386;SDS011;5748;53.102;8.456;2022-08-19T15:20:10;0.70;;;0.70;;
11386;SDS011;5748;53.102;8.456;2022-08-19T15:22:40;0.60;;;0.60;;
11386;SDS011;5748;53.102;8.456;2022-08-19T15:25:10;0.60;;;0.60;;
11386;SDS011;5748;53.102;8.456;2022-08-19T15:27:39;0.60;;;0.60;;
11386;SDS011;5748;53.102;8.456;2022-08-19T15:30:08;0.60;;;0.60;;
11386;SDS011;5748;53.102;8.456;2022-08-19T15:32:37;1.08;;;0.70;;
11386;SDS011;5748;53.102;8.456;2022-08-19T15:35:06;0.70;;;0.70;;
11386;SDS011;5748;53.102;8.456;2022-08-19T15:37:33;0.80;;;0.80;;
11386;SDS011;5748;53.102;8.456;2022-08-19T15:40:01;0.77;;;0.77;;
11386;SDS011;5748;53.102;8.456;2022-08-19T15:42:30;0.75;;;0.75;;
11386;SDS011;5748;53.102;8.456;2022-08-19T15:44:58;1.13;;;0.90;;
11386;SDS011;5748;53.102;8.456;2022-08-19T15:47:27;0.70;;;0.70;;
11386;SDS011;5748;53.102;8.456;2022-08-19T15:49:55;0.77;;;0.60;;
11386;SDS011;5748;53.102;8.456;2022-08-19T15:52:23;0.70;;;0.70;;
11386;SDS011;5748;53.102;8.456;2022-08-19T15:54:51;0.73;;;0.73;;
11386;SDS011;5748;53.102;8.456;2022-08-19T15:57:18;0.70;;;0.70;;